createdAt,value
2018-12-19T00:00:29.870Z,73.47
2018-12-19T00:03:01.986Z,67.50
2018-12-19T00:05:33.697Z,77.40
2018-12-19T00:08:05.417Z,73.23
2018-12-19T00:10:35.313Z,65.20
2018-12-19T00:13:05.051Z,70.57
2018-12-19T00:15:34.685Z,65.27
2018-12-19T00:18:04.033Z,81.53
2018-12-19T00:20:33.555Z,70.90
2018-12-19T00:23:03.271Z,72.40
2018-12-19T00:25:32.706Z,64.87
2018-12-19T00:28:04.323Z,55.90
2018-12-19T00:30:35.681Z,76.90
2018-12-19T00:33:07.188Z,68.93
2018-12-19T00:35:39.347Z,59.90
2018-12-19T00:38:09.776Z,66.83
2018-12-19T00:40:39.330Z,68.73
2018-12-19T00:43:08.945Z,67.93
2018-12-19T00:45:38.521Z,70.53
2018-12-19T00:48:08.872Z,71.20
2018-12-19T00:50:38.167Z,54.00
2018-12-19T00:53:08.472Z,61.93
2018-12-19T00:55:38.166Z,68.30
2018-12-19T00:58:07.571Z,70.77
2018-12-19T01:00:36.906Z,74.90
2018-12-19T01:03:06.253Z,55.63
2018-12-19T01:05:35.726Z,71.80
2018-12-19T01:08:05.523Z,64.97
2018-12-19T01:10:35.022Z,68.77
2018-12-19T01:13:04.738Z,56.73
2018-12-19T01:15:34.748Z,68.30
2018-12-19T01:18:04.665Z,73.10
2018-12-19T01:20:34.449Z,64.63
2018-12-19T01:23:05.609Z,56.47
2018-12-19T01:25:35.376Z,63.13
2018-12-19T01:28:04.771Z,69.07
2018-12-19T01:30:35.545Z,61.07
2018-12-19T01:33:05.249Z,58.50
2018-12-19T01:35:35.007Z,66.77
2018-12-19T01:38:04.317Z,66.13
2018-12-19T01:40:34.209Z,63.47
2018-12-19T01:43:03.946Z,61.73
2018-12-19T01:45:33.575Z,70.60
2018-12-19T01:48:03.163Z,57.60
2018-12-19T01:50:32.827Z,61.37
2018-12-19T01:53:02.195Z,58.67
2018-12-19T01:55:32.159Z,56.93
2018-12-19T01:58:01.647Z,59.77
2018-12-19T02:00:32.577Z,57.90
2018-12-19T02:03:02.214Z,59.83
2018-12-19T02:05:31.810Z,55.23
2018-12-19T02:08:01.226Z,58.13
2018-12-19T02:10:30.958Z,56.73
2018-12-19T02:13:00.671Z,53.10
2018-12-19T02:15:30.455Z,59.87
2018-12-19T02:18:00.492Z,57.93
2018-12-19T02:20:30.263Z,58.13
2018-12-19T02:22:59.760Z,57.73
2018-12-19T02:25:29.178Z,53.70
2018-12-19T02:27:58.668Z,56.37
2018-12-19T02:30:28.226Z,58.70
2018-12-19T02:32:57.617Z,60.03
2018-12-19T02:35:27.303Z,60.40
2018-12-19T02:37:57.832Z,60.73
2018-12-19T02:40:27.290Z,53.17
2018-12-19T02:42:56.790Z,53.73
2018-12-19T02:45:26.094Z,59.30
2018-12-19T02:47:55.585Z,47.37
2018-12-19T02:50:25.374Z,58.27
2018-12-19T02:52:54.839Z,51.43
2018-12-19T02:55:24.563Z,53.87
2018-12-19T02:57:54.189Z,53.80
2018-12-19T03:00:23.644Z,57.47
2018-12-19T03:02:53.215Z,55.73
2018-12-19T03:05:22.908Z,52.57
2018-12-19T03:07:52.262Z,50.93
2018-12-19T03:10:21.565Z,47.00
2018-12-19T03:12:51.160Z,55.80
2018-12-19T03:15:20.532Z,47.87
2018-12-19T03:17:51.077Z,49.27
2018-12-19T03:20:20.398Z,50.80
2018-12-19T03:22:49.793Z,53.60
2018-12-19T03:25:19.108Z,52.13
2018-12-19T03:27:48.391Z,51.77
2018-12-19T03:30:18.895Z,53.40
2018-12-19T03:32:48.242Z,49.00
2018-12-19T03:35:17.774Z,50.87
2018-12-19T03:37:47.351Z,46.67
2018-12-19T03:40:16.672Z,53.87
2018-12-19T03:42:46.211Z,47.80
2018-12-19T03:45:16.014Z,47.73
2018-12-19T03:47:45.715Z,43.03
2018-12-19T03:50:15.596Z,41.17
2018-12-19T03:52:45.207Z,42.83
2018-12-19T03:55:14.718Z,49.93
2018-12-19T03:57:44.333Z,50.80
2018-12-19T04:00:13.757Z,58.47
2018-12-19T04:02:43.961Z,49.67
2018-12-19T04:05:13.606Z,46.43
2018-12-19T04:07:43.034Z,51.00
2018-12-19T04:10:14.024Z,50.80
2018-12-19T04:12:43.556Z,55.80
2018-12-19T04:15:13.291Z,57.13
2018-12-19T04:17:42.750Z,56.93
2018-12-19T04:20:12.402Z,56.30
2018-12-19T04:22:42.342Z,56.10
2018-12-19T04:25:12.405Z,56.43
2018-12-19T04:27:42.229Z,55.37
2018-12-19T04:30:11.983Z,51.63
2018-12-19T04:32:41.649Z,55.30
2018-12-19T04:35:11.153Z,53.57
2018-12-19T04:37:40.570Z,50.63
2018-12-19T04:40:10.076Z,50.40
2018-12-19T04:42:39.949Z,54.20
2018-12-19T04:45:09.305Z,53.70
2018-12-19T04:47:38.682Z,47.63
2018-12-19T04:50:08.289Z,45.53
2018-12-19T04:52:37.760Z,45.27
2018-12-19T04:55:07.604Z,51.43
2018-12-19T04:57:37.153Z,52.90
2018-12-19T05:00:07.150Z,47.93
2018-12-19T05:02:36.851Z,49.93
2018-12-19T05:05:06.827Z,48.47
2018-12-19T05:07:36.660Z,46.40
2018-12-19T05:10:12.277Z,48.73
2018-12-19T05:12:37.798Z,42.87
2018-12-19T05:15:07.538Z,44.80
2018-12-19T05:17:37.013Z,45.50
2018-12-19T05:20:08.902Z,44.40
2018-12-19T05:22:38.430Z,42.73
2018-12-19T05:25:10.863Z,40.43
2018-12-19T05:27:40.396Z,41.27
2018-12-19T05:30:10.256Z,41.53
2018-12-19T05:32:39.586Z,42.00
2018-12-19T05:35:09.247Z,40.50
2018-12-19T05:37:38.730Z,43.73
2018-12-19T05:40:09.166Z,43.17
2018-12-19T05:42:38.534Z,40.47
2018-12-19T05:45:09.306Z,39.00
2018-12-19T05:47:38.810Z,40.83
2018-12-19T05:50:08.828Z,42.50
2018-12-19T05:52:42.713Z,41.13
2018-12-19T05:55:12.459Z,43.43
2018-12-19T05:57:46.422Z,44.57
2018-12-19T06:00:16.092Z,39.33
2018-12-19T06:02:47.706Z,43.90
2018-12-19T06:05:17.591Z,42.07
2018-12-19T06:07:47.338Z,39.20
2018-12-19T06:10:16.916Z,44.50
2018-12-19T06:12:46.384Z,36.50
2018-12-19T06:15:16.043Z,42.03
2018-12-19T06:17:45.723Z,38.30
2018-12-19T06:20:15.484Z,42.60
2018-12-19T06:22:45.098Z,36.70
2018-12-19T06:25:14.697Z,53.42
2018-12-19T06:27:44.478Z,39.37
2018-12-19T06:30:14.000Z,38.67
2018-12-19T06:32:43.652Z,37.43
2018-12-19T06:35:13.264Z,36.20
2018-12-19T06:37:42.757Z,37.77
2018-12-19T06:40:12.365Z,36.13
2018-12-19T06:42:42.034Z,38.10
2018-12-19T06:45:11.634Z,32.43
2018-12-19T06:47:41.854Z,35.00
2018-12-19T06:50:11.394Z,29.80
2018-12-19T06:52:41.167Z,27.37
2018-12-19T06:55:10.716Z,27.00
2018-12-19T06:57:40.342Z,26.03
2018-12-19T07:00:10.378Z,26.10
2018-12-19T07:02:40.427Z,25.47
2018-12-19T07:05:09.866Z,24.67
2018-12-19T07:07:39.582Z,25.40
2018-12-19T07:10:09.467Z,28.17
2018-12-19T07:12:39.223Z,26.70
2018-12-19T07:15:09.036Z,31.37
2018-12-19T07:17:38.813Z,30.07
2018-12-19T07:20:08.681Z,28.27
2018-12-19T07:22:38.230Z,29.93
2018-12-19T07:25:08.375Z,30.80
2018-12-19T07:27:37.811Z,28.07
2018-12-19T07:30:08.552Z,23.83
2018-12-19T07:32:38.521Z,26.27
2018-12-19T07:35:08.566Z,25.80
2018-12-19T07:37:38.251Z,27.07
2018-12-19T07:40:08.984Z,26.23
2018-12-19T07:42:38.887Z,26.27
2018-12-19T07:45:08.644Z,24.67
2018-12-19T07:47:39.225Z,26.40
2018-12-19T07:50:08.900Z,24.27
2018-12-19T07:52:38.461Z,22.23
2018-12-19T07:55:08.329Z,23.07
2018-12-19T07:57:38.146Z,25.73
2018-12-19T08:00:08.431Z,25.83
2018-12-19T08:02:38.108Z,25.03
2018-12-19T08:05:07.862Z,24.47
2018-12-19T08:07:37.775Z,24.97
2018-12-19T08:10:08.230Z,21.93
2018-12-19T08:12:37.832Z,23.00
2018-12-19T08:15:07.312Z,20.30
2018-12-19T08:17:38.235Z,22.40
2018-12-19T08:20:08.194Z,21.93
2018-12-19T08:22:37.815Z,24.20
2018-12-19T08:25:07.550Z,22.47
2018-12-19T08:27:37.388Z,24.67
2018-12-19T08:30:09.282Z,22.17
2018-12-19T08:32:38.758Z,21.63
2018-12-19T08:35:08.414Z,24.53
2018-12-19T08:37:38.382Z,22.13
2018-12-19T08:40:08.314Z,22.93
2018-12-19T08:42:38.410Z,20.40
2018-12-19T08:45:08.222Z,22.80
2018-12-19T08:47:37.931Z,21.40
2018-12-19T08:50:09.423Z,22.33
2018-12-19T08:52:39.059Z,23.73
2018-12-19T08:55:08.955Z,22.70
2018-12-19T08:57:38.253Z,22.17
2018-12-19T09:00:10.131Z,25.07
2018-12-19T09:02:40.470Z,24.07
2018-12-19T09:05:10.927Z,22.50
2018-12-19T09:07:40.383Z,23.03
2018-12-19T09:10:10.183Z,24.23
2018-12-19T09:12:40.531Z,23.97
2018-12-19T09:15:10.030Z,24.43
2018-12-19T09:17:39.715Z,19.23
2018-12-19T09:20:09.535Z,19.40
2018-12-19T09:22:39.001Z,22.97
2018-12-19T09:25:09.059Z,20.60
2018-12-19T09:27:38.969Z,22.47
2018-12-19T09:30:10.357Z,23.03
2018-12-19T09:32:39.909Z,20.77
2018-12-19T09:35:10.142Z,19.43
2018-12-19T09:37:40.968Z,21.57
2018-12-19T09:40:10.901Z,20.97
2018-12-19T09:42:40.295Z,24.47
2018-12-19T09:45:09.773Z,23.30
2018-12-19T09:47:39.212Z,20.87
2018-12-19T09:50:09.027Z,23.17
2018-12-19T09:52:38.829Z,21.03
2018-12-19T09:55:08.446Z,25.33
2018-12-19T09:57:38.528Z,24.00
2018-12-19T10:00:14.421Z,21.17
2018-12-19T10:02:44.721Z,21.97
2018-12-19T10:05:14.422Z,22.53
2018-12-19T10:07:44.373Z,24.07
2018-12-19T10:10:13.990Z,25.00
2018-12-19T10:12:43.523Z,21.27
2018-12-19T10:15:13.308Z,22.30
2018-12-19T10:17:42.880Z,20.87
2018-12-19T10:20:12.992Z,21.80
2018-12-19T10:22:42.358Z,21.37
2018-12-19T10:25:14.953Z,22.40
2018-12-19T10:27:44.576Z,19.83
2018-12-19T10:30:14.609Z,22.63
2018-12-19T10:32:46.294Z,21.77
2018-12-19T10:35:16.050Z,22.13
2018-12-19T10:37:45.342Z,24.50
2018-12-19T10:40:15.404Z,24.17
2018-12-19T10:42:45.203Z,23.93
2018-12-19T10:45:14.942Z,21.17
2018-12-19T10:47:44.515Z,21.60
2018-12-19T10:50:14.268Z,21.67
2018-12-19T10:52:43.611Z,21.27
2018-12-19T10:55:13.000Z,21.37
2018-12-19T10:57:42.337Z,23.10
2018-12-19T11:00:18.682Z,22.80
2018-12-19T11:02:48.036Z,19.77
2018-12-19T11:05:17.716Z,23.33
2018-12-19T11:07:48.497Z,21.23
2018-12-19T11:10:17.984Z,20.57
2018-12-19T11:12:48.430Z,23.33
2018-12-19T11:15:18.139Z,21.93
2018-12-19T11:17:48.000Z,20.60
2018-12-19T11:20:17.527Z,22.03
2018-12-19T11:22:46.955Z,21.20
2018-12-19T11:25:16.518Z,23.33
2018-12-19T11:27:45.989Z,19.93
2018-12-19T11:30:15.446Z,21.57
2018-12-19T11:32:44.876Z,23.27
2018-12-19T11:35:14.304Z,22.20
2018-12-19T11:37:43.637Z,23.30
2018-12-19T11:40:12.994Z,25.03
2018-12-19T11:42:42.839Z,21.27
2018-12-19T11:45:13.146Z,23.40
2018-12-19T11:47:42.683Z,25.90
2018-12-19T11:50:12.236Z,23.33
2018-12-19T11:52:42.264Z,23.13
2018-12-19T11:55:11.836Z,23.10
2018-12-19T11:57:41.787Z,23.57
2018-12-19T12:00:11.381Z,21.30
2018-12-19T12:02:40.996Z,21.70
2018-12-19T12:05:10.356Z,20.67
2018-12-19T12:07:42.035Z,21.37
2018-12-19T12:10:11.551Z,20.33
2018-12-19T12:12:40.953Z,22.13
2018-12-19T12:15:11.687Z,20.90
2018-12-19T12:17:41.195Z,21.60
2018-12-19T12:20:11.389Z,21.53
2018-12-19T12:22:41.337Z,21.97
2018-12-19T12:25:11.388Z,19.87
2018-12-19T12:27:40.955Z,20.47
2018-12-19T12:30:10.924Z,19.97
2018-12-19T12:32:40.410Z,20.17
2018-12-19T12:35:10.334Z,21.87
2018-12-19T12:37:39.910Z,19.33
2018-12-19T12:40:10.338Z,21.00
2018-12-19T12:42:40.260Z,21.73
2018-12-19T12:45:09.893Z,23.50
2018-12-19T12:47:39.904Z,22.50
2018-12-19T12:50:09.768Z,19.97
2018-12-19T12:52:39.261Z,22.20
2018-12-19T12:55:08.738Z,21.70
2018-12-19T12:57:38.307Z,22.97
2018-12-19T13:00:08.340Z,30.53
2018-12-19T13:02:38.040Z,26.37
2018-12-19T13:05:09.715Z,22.13
2018-12-19T13:07:39.499Z,23.20
2018-12-19T13:10:09.359Z,23.17
2018-12-19T13:12:38.817Z,22.30
2018-12-19T13:15:09.016Z,23.50
2018-12-19T13:17:38.742Z,22.70
2018-12-19T13:20:08.323Z,21.63
2018-12-19T13:22:38.005Z,20.07
2018-12-19T13:25:08.082Z,22.80
2018-12-19T13:27:37.731Z,20.67
2018-12-19T13:30:09.142Z,22.60
2018-12-19T13:32:38.995Z,22.27
2018-12-19T13:35:08.777Z,20.30
2018-12-19T13:37:38.403Z,21.73
2018-12-19T13:40:08.807Z,21.40
2018-12-19T13:42:38.411Z,19.57
2018-12-19T13:45:08.613Z,21.87
2018-12-19T13:47:38.675Z,20.10
2018-12-19T13:50:09.029Z,21.50
2018-12-19T13:52:39.789Z,20.43
2018-12-19T13:55:09.212Z,21.63
2018-12-19T13:57:38.897Z,21.37
2018-12-19T14:00:10.701Z,20.73
2018-12-19T14:02:41.478Z,21.30
2018-12-19T14:05:11.148Z,21.17
2018-12-19T14:07:40.877Z,18.30
2018-12-19T14:10:10.361Z,19.23
2018-12-19T14:12:40.742Z,19.90
2018-12-19T14:15:10.072Z,21.97
2018-12-19T14:17:39.752Z,20.20
2018-12-19T14:20:09.659Z,20.00
2018-12-19T14:22:39.712Z,21.73
2018-12-19T14:25:09.512Z,19.27
2018-12-19T14:27:40.138Z,19.20
2018-12-19T14:30:10.117Z,21.10
2018-12-19T14:32:40.198Z,22.10
2018-12-19T14:35:09.823Z,18.83
2018-12-19T14:37:40.617Z,18.43
2018-12-19T14:40:10.440Z,20.70
2018-12-19T14:42:40.240Z,20.60
2018-12-19T14:45:10.643Z,19.30
2018-12-19T14:47:40.151Z,20.33
2018-12-19T14:50:09.776Z,21.37
2018-12-19T14:52:39.619Z,20.60
2018-12-19T14:55:09.409Z,20.47
2018-12-19T14:57:40.421Z,21.43
2018-12-19T15:00:18.039Z,21.97
2018-12-19T15:02:47.878Z,19.40
2018-12-19T15:05:17.515Z,22.37
2018-12-19T15:07:47.489Z,20.90
2018-12-19T15:10:16.971Z,21.90
2018-12-19T15:12:48.140Z,18.40
2018-12-19T15:15:17.801Z,21.83
2018-12-19T15:17:48.353Z,20.53
2018-12-19T15:20:17.819Z,21.77
2018-12-19T15:22:48.043Z,20.83
2018-12-19T15:25:17.958Z,20.30
2018-12-19T15:27:47.424Z,19.03
2018-12-19T15:30:23.523Z,20.83
2018-12-19T15:32:53.476Z,22.97
2018-12-19T15:35:23.107Z,26.20
2018-12-19T15:37:52.750Z,24.07
2018-12-19T15:40:22.425Z,29.70
2018-12-19T15:42:52.212Z,21.50
2018-12-19T15:45:22.714Z,24.03
2018-12-19T15:47:53.378Z,23.77
2018-12-19T15:50:23.160Z,34.35
2018-12-19T15:52:52.725Z,25.40
2018-12-19T15:55:22.346Z,28.20
2018-12-19T15:57:52.343Z,27.23
2018-12-19T16:00:22.616Z,29.27
2018-12-19T16:02:53.104Z,28.10
2018-12-19T16:05:22.825Z,26.93
2018-12-19T16:07:53.617Z,29.10
2018-12-19T16:10:24.113Z,28.27
2018-12-19T16:12:54.438Z,30.53
2018-12-19T16:15:25.396Z,30.17
2018-12-19T16:17:55.265Z,28.00
2018-12-19T16:20:25.570Z,30.43
2018-12-19T16:22:55.790Z,32.67
2018-12-19T16:25:27.774Z,31.80
2018-12-19T16:27:58.746Z,32.33
2018-12-19T16:30:28.836Z,30.93
2018-12-19T16:33:01.056Z,51.00
2018-12-19T16:35:31.678Z,35.33
2018-12-19T16:38:01.374Z,35.23
2018-12-19T16:40:32.920Z,39.07
2018-12-19T16:43:02.629Z,37.23
2018-12-19T16:45:33.445Z,33.37
2018-12-19T16:48:05.281Z,30.70
2018-12-19T16:50:35.039Z,26.30
2018-12-19T16:53:07.230Z,28.43
2018-12-19T16:55:37.356Z,40.33
2018-12-19T16:58:09.061Z,33.80
2018-12-19T17:00:39.381Z,32.67
2018-12-19T17:03:09.553Z,35.93
2018-12-19T17:05:39.264Z,37.97
2018-12-19T17:08:09.693Z,42.57
2018-12-19T17:10:39.706Z,35.83
2018-12-19T17:13:09.428Z,39.13
2018-12-19T17:15:40.235Z,37.17
2018-12-19T17:18:11.262Z,36.67
2018-12-19T17:20:41.186Z,35.00
2018-12-19T17:23:11.189Z,36.07
2018-12-19T17:25:41.406Z,35.43
2018-12-19T17:28:12.319Z,33.60
2018-12-19T17:30:47.794Z,35.43
2018-12-19T17:33:18.369Z,36.50
2018-12-19T17:35:48.419Z,36.03
2018-12-19T17:38:18.457Z,38.20
2018-12-19T17:40:48.821Z,30.43
2018-12-19T17:43:18.739Z,36.97
2018-12-19T17:45:49.477Z,35.83
2018-12-19T17:48:19.427Z,35.23
2018-12-19T17:50:49.408Z,37.07
2018-12-19T17:53:19.615Z,33.80
2018-12-19T17:55:51.649Z,34.90
2018-12-19T17:58:22.448Z,35.80
2018-12-19T18:00:53.039Z,35.80
2018-12-19T18:03:23.791Z,34.10
2018-12-19T18:05:54.526Z,38.13
2018-12-19T18:08:25.383Z,38.43
2018-12-19T18:10:59.338Z,43.67
2018-12-19T18:13:29.290Z,40.27
2018-12-19T18:15:59.207Z,33.57
2018-12-19T18:18:29.530Z,43.37
2018-12-19T18:20:59.657Z,39.30
2018-12-19T18:23:29.976Z,36.07
2018-12-19T18:25:59.935Z,33.37
2018-12-19T18:28:29.666Z,40.67
2018-12-19T18:30:59.784Z,32.77
2018-12-19T18:33:30.750Z,32.83
2018-12-19T18:36:01.526Z,34.60
2018-12-19T18:38:31.584Z,33.33
2018-12-19T18:41:01.398Z,29.40
2018-12-19T18:43:31.618Z,28.20
2018-12-19T18:46:01.765Z,35.97
2018-12-19T18:48:32.587Z,38.30
2018-12-19T18:51:02.765Z,36.23
2018-12-19T18:53:32.814Z,47.83
2018-12-19T18:56:06.579Z,47.20
2018-12-19T18:58:37.285Z,40.40
2018-12-19T19:01:07.381Z,44.73
2018-12-19T19:03:38.409Z,46.37
2018-12-19T19:06:08.837Z,44.43
2018-12-19T19:08:38.953Z,36.80
2018-12-19T19:11:12.937Z,35.67
2018-12-19T19:13:43.042Z,35.73
2018-12-19T19:16:13.026Z,46.13
2018-12-19T19:18:43.501Z,50.10
2018-12-19T19:21:13.333Z,45.83
2018-12-19T19:23:42.876Z,49.10
2018-12-19T19:26:13.229Z,47.13
2018-12-19T19:28:42.942Z,41.90
2018-12-19T19:31:12.875Z,47.17
2018-12-19T19:33:43.337Z,38.17
2018-12-19T19:36:13.823Z,35.83
2018-12-19T19:38:43.887Z,39.13
2018-12-19T19:41:13.827Z,36.60
2018-12-19T19:43:43.865Z,30.00
2018-12-19T19:46:13.783Z,44.33
2018-12-19T19:48:43.848Z,49.60
2018-12-19T19:51:16.950Z,48.47
2018-12-19T19:53:45.759Z,45.17
2018-12-19T19:56:15.813Z,40.40
2018-12-19T19:58:45.974Z,47.10
2018-12-19T20:01:16.094Z,43.70
2018-12-19T20:03:46.230Z,41.47
2018-12-19T20:06:16.084Z,42.80
2018-12-19T20:08:45.937Z,42.53
2018-12-19T20:11:16.344Z,46.43
2018-12-19T20:13:47.301Z,46.60
2018-12-19T20:16:17.627Z,48.37
2018-12-19T20:18:47.705Z,44.83
2018-12-19T20:21:18.842Z,44.80
2018-12-19T20:23:50.175Z,48.27
2018-12-19T20:26:20.418Z,47.43
2018-12-19T20:28:50.810Z,49.60
2018-12-19T20:31:21.113Z,52.13
2018-12-19T20:33:51.313Z,46.83
2018-12-19T20:36:21.921Z,46.13
2018-12-19T20:38:52.328Z,39.67
2018-12-19T20:41:22.722Z,50.00
2018-12-19T20:43:52.857Z,47.63
2018-12-19T20:46:24.678Z,46.13
2018-12-19T20:48:54.703Z,49.87
2018-12-19T20:51:24.955Z,44.67
2018-12-19T20:53:54.919Z,48.67
2018-12-19T20:56:25.515Z,48.93
2018-12-19T20:58:55.724Z,48.10
2018-12-19T21:01:26.047Z,49.27
2018-12-19T21:03:56.109Z,49.93
2018-12-19T21:06:26.547Z,47.73
2018-12-19T21:08:56.749Z,42.90
2018-12-19T21:11:27.403Z,43.83
2018-12-19T21:13:57.412Z,42.33
2018-12-19T21:16:32.844Z,45.60
2018-12-19T21:19:02.753Z,38.97
2018-12-19T21:21:33.553Z,34.47
2018-12-19T21:24:03.774Z,41.27
2018-12-19T21:26:33.993Z,46.80
2018-12-19T21:29:04.814Z,48.60
2018-12-19T21:31:34.963Z,43.93
2018-12-19T21:34:04.910Z,48.17
2018-12-19T21:36:34.795Z,44.17
2018-12-19T21:39:08.206Z,44.73
2018-12-19T21:41:38.531Z,44.80
2018-12-19T21:44:08.752Z,45.47
2018-12-19T21:46:39.242Z,44.20
2018-12-19T21:49:08.861Z,48.00
2018-12-19T21:51:38.990Z,47.77
2018-12-19T21:54:08.908Z,39.57
2018-12-19T21:56:38.840Z,39.43
2018-12-19T21:59:08.735Z,44.27
2018-12-19T22:01:38.339Z,46.40
2018-12-19T22:04:08.525Z,45.10
2018-12-19T22:06:38.594Z,44.83
2018-12-19T22:09:10.495Z,40.80
2018-12-19T22:11:40.641Z,47.70
2018-12-19T22:14:10.612Z,47.00
2018-12-19T22:16:45.493Z,49.47
2018-12-19T22:19:15.254Z,49.30
2018-12-19T22:21:44.994Z,48.13
2018-12-19T22:24:14.797Z,50.47
2018-12-19T22:26:44.628Z,41.67
2018-12-19T22:29:14.903Z,48.30
2018-12-19T22:31:44.902Z,45.13
2018-12-19T22:34:14.909Z,75.60
2018-12-19T22:36:44.898Z,49.03
2018-12-19T22:39:18.275Z,48.87
2018-12-19T22:41:48.167Z,41.90
2018-12-19T22:44:18.043Z,51.83
2018-12-19T22:46:47.546Z,46.27
2018-12-19T22:49:17.173Z,46.33
2018-12-19T22:51:46.928Z,53.83
2018-12-19T22:54:16.545Z,43.67
2018-12-19T22:56:46.262Z,51.10
2018-12-19T22:59:16.008Z,45.30
2018-12-19T23:02:52.994Z,49.33
2018-12-19T23:05:27.945Z,46.63
2018-12-19T23:07:57.701Z,46.20
2018-12-19T23:10:27.330Z,47.97
2018-12-19T23:12:56.991Z,50.47
2018-12-19T23:15:26.439Z,43.57
2018-12-19T23:18:06.864Z,50.27
2018-12-19T23:20:42.222Z,45.70
2018-12-19T23:23:17.641Z,46.40
2018-12-19T23:25:53.291Z,47.10
2018-12-19T23:28:25.263Z,48.00
2018-12-19T23:30:56.210Z,49.67
2018-12-19T23:33:26.100Z,48.10
2018-12-19T23:35:55.728Z,52.23
2018-12-19T23:38:25.520Z,54.30
2018-12-19T23:40:55.670Z,51.60
2018-12-19T23:43:25.476Z,51.80
2018-12-19T23:45:54.958Z,48.77
2018-12-19T23:48:24.490Z,56.23
2018-12-19T23:50:54.269Z,54.27
2018-12-19T23:53:23.907Z,52.50
2018-12-19T23:55:53.587Z,57.63
2018-12-19T23:58:23.212Z,59.63
